createdAt,value
2019-01-28T00:01:57.221Z,21.50
2019-01-28T00:04:27.608Z,17.47
2019-01-28T00:06:58.108Z,19.50
2019-01-28T00:09:28.320Z,20.80
2019-01-28T00:11:59.051Z,15.93
2019-01-28T00:14:28.997Z,15.97
2019-01-28T00:16:58.747Z,14.13
2019-01-28T00:19:29.081Z,15.47
2019-01-28T00:21:59.649Z,15.77
2019-01-28T00:24:29.480Z,12.83
2019-01-28T00:26:59.297Z,11.23
2019-01-28T00:29:29.383Z,14.07
2019-01-28T00:31:59.841Z,10.27
2019-01-28T00:34:30.230Z,12.20
2019-01-28T00:37:00.533Z,10.70
2019-01-28T00:39:30.425Z,11.33
2019-01-28T00:42:00.929Z,11.13
2019-01-28T00:44:32.489Z,12.00
2019-01-28T00:47:02.411Z,12.03
2019-01-28T00:49:35.327Z,9.17
2019-01-28T00:52:06.641Z,12.33
2019-01-28T00:54:36.560Z,9.67
2019-01-28T00:57:06.385Z,9.00
2019-01-28T00:59:36.828Z,12.90
2019-01-28T01:02:06.865Z,10.20
2019-01-28T01:04:38.801Z,9.33
2019-01-28T01:07:09.000Z,9.03
2019-01-28T01:09:38.917Z,10.67
2019-01-28T01:12:09.423Z,9.67
2019-01-28T01:14:39.197Z,11.00
2019-01-28T01:17:09.463Z,9.63
2019-01-28T01:19:39.673Z,12.00
2019-01-28T01:22:09.393Z,10.80
2019-01-28T01:24:39.803Z,12.00
2019-01-28T01:27:09.481Z,13.27
2019-01-28T01:29:39.392Z,11.10
2019-01-28T01:32:09.444Z,10.57
2019-01-28T01:34:39.868Z,10.03
2019-01-28T01:37:10.653Z,9.10
2019-01-28T01:39:40.521Z,12.23
2019-01-28T01:42:11.409Z,10.87
2019-01-28T01:44:42.670Z,9.87
2019-01-28T01:47:13.397Z,8.67
2019-01-28T01:49:42.681Z,10.60
2019-01-28T01:52:12.828Z,8.47
2019-01-28T01:54:43.252Z,7.73
2019-01-28T01:57:13.473Z,11.80
2019-01-28T01:59:44.172Z,9.57
2019-01-28T02:02:13.985Z,7.10
2019-01-28T02:04:44.334Z,8.50
2019-01-28T02:07:13.853Z,6.93
2019-01-28T02:09:44.185Z,7.53
2019-01-28T02:12:14.269Z,8.77
2019-01-28T02:14:44.004Z,7.57
2019-01-28T02:17:15.032Z,9.70
2019-01-28T02:19:45.049Z,6.77
2019-01-28T02:22:14.889Z,6.37
2019-01-28T02:24:45.393Z,7.70
2019-01-28T02:27:16.138Z,8.00
2019-01-28T02:29:46.616Z,7.57
2019-01-28T02:32:16.860Z,9.33
2019-01-28T02:34:47.085Z,8.07
2019-01-28T02:37:18.037Z,6.70
2019-01-28T02:39:47.726Z,7.17
2019-01-28T02:42:17.669Z,6.03
2019-01-28T02:44:47.796Z,6.30
2019-01-28T02:47:18.300Z,6.83
2019-01-28T02:49:49.209Z,5.80
2019-01-28T02:52:19.517Z,6.33
2019-01-28T02:54:51.576Z,5.13
2019-01-28T02:57:22.562Z,4.70
2019-01-28T02:59:52.546Z,4.80
2019-01-28T03:02:23.065Z,4.73
2019-01-28T03:04:53.433Z,5.60
2019-01-28T03:07:23.751Z,6.50
2019-01-28T03:09:53.757Z,5.83
2019-01-28T03:12:24.134Z,4.83
2019-01-28T03:14:54.956Z,4.20
2019-01-28T03:17:24.945Z,5.07
2019-01-28T03:19:54.672Z,4.63
2019-01-28T03:22:25.660Z,4.73
2019-01-28T03:24:56.133Z,5.83
2019-01-28T03:27:27.029Z,5.50
2019-01-28T03:29:56.689Z,4.83
2019-01-28T03:32:26.603Z,4.37
2019-01-28T03:34:57.146Z,4.03
2019-01-28T03:37:27.158Z,5.80
2019-01-28T03:39:57.569Z,6.23
2019-01-28T03:42:27.609Z,3.77
2019-01-28T03:44:57.633Z,6.00
2019-01-28T03:47:28.179Z,2.80
2019-01-28T03:49:59.157Z,5.27
2019-01-28T03:52:29.428Z,4.83
2019-01-28T03:55:00.443Z,6.17
2019-01-28T03:57:30.189Z,5.37
2019-01-28T04:00:00.669Z,4.13
2019-01-28T04:02:30.704Z,4.77
2019-01-28T04:05:01.022Z,6.40
2019-01-28T04:07:30.970Z,6.10
2019-01-28T04:10:00.886Z,5.03
2019-01-28T04:12:31.150Z,4.87
2019-01-28T04:15:01.566Z,5.50
2019-01-28T04:17:31.938Z,4.67
2019-01-28T04:20:02.372Z,6.00
2019-01-28T04:22:32.684Z,4.97
2019-01-28T04:25:02.473Z,2.90
2019-01-28T04:27:32.281Z,3.73
2019-01-28T04:30:02.062Z,4.03
2019-01-28T04:32:34.010Z,4.50
2019-01-28T04:35:04.261Z,3.60
2019-01-28T04:37:34.752Z,5.53
2019-01-28T04:40:06.261Z,5.00
2019-01-28T04:42:36.945Z,4.73
2019-01-28T04:45:07.378Z,4.70
2019-01-28T04:47:38.314Z,5.17
2019-01-28T04:50:09.393Z,4.10
2019-01-28T04:52:40.042Z,5.60
2019-01-28T04:55:10.674Z,4.50
2019-01-28T04:57:40.525Z,4.73
2019-01-28T05:00:12.603Z,4.37
2019-01-28T05:02:42.660Z,4.97
2019-01-28T05:05:12.708Z,5.20
2019-01-28T05:07:42.745Z,5.50
2019-01-28T05:10:16.106Z,5.63
2019-01-28T05:12:46.485Z,5.10
2019-01-28T05:15:18.011Z,4.40
2019-01-28T05:17:48.342Z,4.87
2019-01-28T05:20:18.721Z,8.03
2019-01-28T05:22:48.296Z,7.27
2019-01-28T05:25:19.403Z,5.23
2019-01-28T05:27:49.641Z,8.30
2019-01-28T05:30:20.930Z,5.80
2019-01-28T05:32:50.847Z,6.27
2019-01-28T05:35:21.758Z,7.70
2019-01-28T05:37:52.463Z,7.60
2019-01-28T05:40:23.816Z,6.00
2019-01-28T05:42:53.780Z,7.23
2019-01-28T05:45:23.457Z,5.60
2019-01-28T05:47:53.316Z,8.57
2019-01-28T05:50:23.093Z,7.63
2019-01-28T05:52:55.151Z,8.20
2019-01-28T05:55:25.388Z,9.00
2019-01-28T05:57:57.210Z,10.83
2019-01-28T06:00:42.045Z,7.77
2019-01-28T06:03:13.559Z,6.60
2019-01-28T06:05:43.513Z,10.07
2019-01-28T06:08:13.370Z,8.47
2019-01-28T06:10:43.853Z,8.13
2019-01-28T06:13:13.686Z,6.53
2019-01-28T06:15:43.977Z,7.77
2019-01-28T06:18:14.310Z,8.63
2019-01-28T06:20:44.769Z,8.20
2019-01-28T06:23:15.127Z,11.13
2019-01-28T06:25:46.235Z,8.27
2019-01-28T06:28:15.756Z,8.00
2019-01-28T06:30:46.653Z,7.87
2019-01-28T06:33:16.596Z,7.87
2019-01-28T06:35:46.371Z,8.00
2019-01-28T06:38:16.350Z,7.67
2019-01-28T06:40:46.905Z,9.70
2019-01-28T06:43:17.321Z,8.83
2019-01-28T06:45:47.821Z,11.13
2019-01-28T06:48:18.320Z,11.33
2019-01-28T06:50:48.760Z,9.60
2019-01-28T06:53:19.952Z,13.47
2019-01-28T06:55:50.301Z,9.07
2019-01-28T06:58:20.198Z,11.57
2019-01-28T07:00:50.553Z,10.03
2019-01-28T07:03:21.784Z,11.50
2019-01-28T07:05:52.910Z,8.93
2019-01-28T07:08:27.894Z,9.97
2019-01-28T07:10:57.525Z,9.27
2019-01-28T07:13:27.101Z,10.00
2019-01-28T07:15:56.380Z,9.53
2019-01-28T07:18:26.887Z,10.20
2019-01-28T07:20:57.290Z,13.67
2019-01-28T07:23:27.241Z,11.57
2019-01-28T07:25:57.601Z,9.30
2019-01-28T07:28:27.509Z,10.10
2019-01-28T07:30:59.373Z,12.63
2019-01-28T07:33:29.828Z,10.87
2019-01-28T07:35:59.616Z,12.27
2019-01-28T07:38:31.190Z,10.87
2019-01-28T07:41:00.809Z,11.80
2019-01-28T07:43:30.616Z,10.67
2019-01-28T07:46:01.498Z,12.27
2019-01-28T07:48:31.685Z,12.93
2019-01-28T07:51:01.910Z,13.70
2019-01-28T07:53:31.557Z,14.67
2019-01-28T07:56:01.181Z,11.80
2019-01-28T07:58:31.956Z,12.33
2019-01-28T08:01:02.373Z,14.50
2019-01-28T08:03:32.716Z,13.43
2019-01-28T08:06:02.408Z,14.83
2019-01-28T08:08:32.863Z,16.23
2019-01-28T08:11:02.487Z,13.43
2019-01-28T08:13:32.463Z,15.10
2019-01-28T08:16:03.542Z,18.13
2019-01-28T08:18:33.692Z,14.47
2019-01-28T08:21:04.633Z,16.17
2019-01-28T08:23:35.772Z,17.47
2019-01-28T08:26:06.253Z,15.20
2019-01-28T08:28:36.908Z,13.93
2019-01-28T08:31:07.697Z,17.50
2019-01-28T08:33:38.041Z,17.07
2019-01-28T08:36:08.309Z,15.83
2019-01-28T08:38:38.663Z,15.63
2019-01-28T08:41:08.598Z,16.30
2019-01-28T08:43:38.230Z,15.13
2019-01-28T08:46:08.569Z,15.10
2019-01-28T08:48:38.013Z,15.30
2019-01-28T08:51:07.939Z,16.37
2019-01-28T08:53:37.745Z,15.50
2019-01-28T08:56:08.581Z,17.07
2019-01-28T08:58:39.973Z,11.93
2019-01-28T09:01:09.772Z,15.73
2019-01-28T09:03:40.425Z,13.93
2019-01-28T09:06:10.616Z,12.60
2019-01-28T09:08:41.945Z,14.07
2019-01-28T09:11:11.869Z,13.80
2019-01-28T09:13:41.829Z,14.13
2019-01-28T09:16:11.401Z,13.10
2019-01-28T09:18:41.110Z,14.27
2019-01-28T09:21:11.084Z,17.67
2019-01-28T09:23:41.664Z,13.37
2019-01-28T09:26:11.924Z,14.53
2019-01-28T09:28:41.651Z,14.97
2019-01-28T09:31:11.427Z,15.20
2019-01-28T09:33:45.093Z,15.70
2019-01-28T09:36:14.872Z,16.60
2019-01-28T09:38:44.660Z,13.17
2019-01-28T09:41:15.614Z,15.23
2019-01-28T09:43:45.525Z,13.37
2019-01-28T09:46:15.997Z,18.27
2019-01-28T09:48:46.301Z,14.50
2019-01-28T09:51:16.213Z,15.83
2019-01-28T09:53:45.996Z,15.10
2019-01-28T09:56:15.744Z,13.00
2019-01-28T09:58:46.258Z,14.47
2019-01-28T10:01:16.639Z,13.53
2019-01-28T10:03:48.029Z,14.50
2019-01-28T10:06:19.588Z,12.37
2019-01-28T10:08:49.301Z,11.80
2019-01-28T10:11:19.125Z,13.20
2019-01-28T10:13:49.560Z,12.73
2019-01-28T10:16:20.220Z,13.60
2019-01-28T10:18:51.448Z,13.63
2019-01-28T10:21:22.234Z,14.57
2019-01-28T10:23:54.664Z,12.63
2019-01-28T10:26:24.384Z,10.73
2019-01-28T10:28:54.942Z,14.60
2019-01-28T10:31:25.273Z,14.83
2019-01-28T10:33:57.050Z,12.77
2019-01-28T10:36:27.494Z,16.03
2019-01-28T10:38:57.173Z,13.23
2019-01-28T10:41:28.531Z,15.10
2019-01-28T10:43:58.813Z,15.57
2019-01-28T10:46:29.292Z,13.50
2019-01-28T10:48:59.673Z,15.00
2019-01-28T10:51:29.495Z,14.70
2019-01-28T10:53:59.017Z,17.30
2019-01-28T10:56:30.141Z,13.97
2019-01-28T10:59:01.084Z,14.93
2019-01-28T11:01:32.079Z,14.03
2019-01-28T11:04:02.052Z,15.43
2019-01-28T11:06:31.812Z,14.77
2019-01-28T11:09:01.577Z,14.03
2019-01-28T11:11:31.443Z,14.17
2019-01-28T11:14:01.161Z,14.60
2019-01-28T11:16:31.226Z,16.83
2019-01-28T11:19:01.443Z,16.03
2019-01-28T11:21:31.390Z,15.80
2019-01-28T11:24:01.097Z,14.23
2019-01-28T11:26:31.523Z,12.47
2019-01-28T11:29:01.902Z,18.27
2019-01-28T11:31:32.425Z,16.53
2019-01-28T11:34:03.336Z,15.27
2019-01-28T11:36:33.173Z,14.37
2019-01-28T11:39:03.747Z,16.17
2019-01-28T11:41:37.549Z,15.43
2019-01-28T11:44:07.851Z,14.77
2019-01-28T11:46:38.185Z,13.23
2019-01-28T11:49:08.063Z,17.60
2019-01-28T11:51:37.768Z,15.80
2019-01-28T11:54:09.942Z,14.40
2019-01-28T11:56:41.237Z,16.50
2019-01-28T11:59:11.303Z,16.07
2019-01-28T12:01:40.961Z,15.70
2019-01-28T12:04:11.052Z,18.60
2019-01-28T12:06:41.332Z,11.27
2019-01-28T12:09:11.366Z,14.73
2019-01-28T12:11:41.965Z,18.93
2019-01-28T12:14:12.413Z,13.73
2019-01-28T12:16:42.658Z,14.87
2019-01-28T12:19:14.289Z,15.23
2019-01-28T12:21:48.760Z,16.53
2019-01-28T12:24:19.405Z,17.33
2019-01-28T12:26:49.848Z,15.97
2019-01-28T12:29:19.555Z,16.07
2019-01-28T12:31:49.537Z,17.23
2019-01-28T12:34:20.073Z,15.40
2019-01-28T12:36:50.232Z,15.33
2019-01-28T12:39:20.040Z,16.80
2019-01-28T12:41:50.740Z,13.60
2019-01-28T12:44:21.001Z,14.50
2019-01-28T12:46:50.609Z,16.33
2019-01-28T12:49:22.184Z,15.03
2019-01-28T12:51:53.308Z,16.10
2019-01-28T12:54:23.277Z,12.23
2019-01-28T12:56:52.896Z,15.30
2019-01-28T12:59:23.769Z,14.97
2019-01-28T13:01:53.367Z,15.10
2019-01-28T13:04:24.597Z,13.53
2019-01-28T13:06:55.641Z,16.13
2019-01-28T13:09:25.446Z,14.87
2019-01-28T13:11:55.145Z,14.00
2019-01-28T13:14:25.561Z,16.83
2019-01-28T13:16:55.272Z,14.30
2019-01-28T13:19:30.228Z,13.10
2019-01-28T13:21:59.643Z,16.03
2019-01-28T13:24:29.617Z,17.50
2019-01-28T13:26:59.848Z,14.67
2019-01-28T13:29:30.277Z,15.03
2019-01-28T13:32:00.993Z,13.97
2019-01-28T13:34:31.642Z,15.80
2019-01-28T13:37:01.936Z,12.77
2019-01-28T13:39:32.315Z,14.10
2019-01-28T13:42:02.422Z,15.83
2019-01-28T13:44:33.496Z,14.63
2019-01-28T13:47:03.294Z,10.80
2019-01-28T13:49:38.094Z,15.77
2019-01-28T13:52:05.264Z,15.43
2019-01-28T13:54:35.237Z,16.17
2019-01-28T13:57:05.472Z,14.10
2019-01-28T13:59:35.607Z,12.60
2019-01-28T14:02:06.409Z,16.43
2019-01-28T14:04:36.090Z,14.40
2019-01-28T14:07:08.461Z,13.00
2019-01-28T14:09:38.842Z,15.87
2019-01-28T14:12:09.309Z,14.27
2019-01-28T14:14:39.829Z,12.27
2019-01-28T14:17:10.418Z,15.87
2019-01-28T14:19:46.362Z,12.63
2019-01-28T14:22:15.805Z,15.47
2019-01-28T14:24:47.093Z,13.37
2019-01-28T14:27:20.133Z,12.53
2019-01-28T14:29:50.489Z,13.60
2019-01-28T14:32:20.830Z,14.73
2019-01-28T14:34:51.286Z,14.10
2019-01-28T14:37:21.785Z,13.40
2019-01-28T14:39:52.165Z,17.23
2019-01-28T14:42:22.061Z,15.03
2019-01-28T14:44:52.134Z,15.43
2019-01-28T14:47:22.814Z,15.47
2019-01-28T14:49:54.640Z,14.90
2019-01-28T14:52:25.854Z,15.50
2019-01-28T14:54:56.406Z,18.13
2019-01-28T14:57:27.289Z,13.10
2019-01-28T14:59:57.218Z,16.17
2019-01-28T15:02:27.673Z,15.17
2019-01-28T15:04:57.269Z,15.43
2019-01-28T15:07:27.965Z,16.17
2019-01-28T15:09:59.152Z,14.40
2019-01-28T15:12:29.526Z,17.23
2019-01-28T15:15:00.678Z,16.80
2019-01-28T15:17:30.545Z,14.93
2019-01-28T15:20:02.515Z,15.93
2019-01-28T15:22:33.144Z,17.93
2019-01-28T15:25:03.673Z,16.43
2019-01-28T15:27:34.744Z,17.17
2019-01-28T15:30:05.689Z,17.63
2019-01-28T15:32:35.831Z,19.63
2019-01-28T15:35:06.353Z,17.07
2019-01-28T15:37:36.792Z,16.23
2019-01-28T15:40:09.337Z,15.47
2019-01-28T15:42:39.705Z,18.33
2019-01-28T15:45:12.189Z,19.60
2019-01-28T15:47:42.633Z,16.23
2019-01-28T15:50:12.781Z,17.77
2019-01-28T15:52:42.734Z,18.70
2019-01-28T15:55:14.520Z,16.57
2019-01-28T15:57:45.278Z,17.17
2019-01-28T16:00:16.593Z,16.87
2019-01-28T16:02:47.083Z,15.67
2019-01-28T16:05:18.105Z,18.90
2019-01-28T16:07:47.807Z,15.67
2019-01-28T16:10:17.570Z,18.80
2019-01-28T16:12:48.649Z,18.10
2019-01-28T16:15:24.671Z,19.17
2019-01-28T16:17:54.493Z,17.73
2019-01-28T16:20:24.205Z,17.40
2019-01-28T16:22:53.798Z,14.07
2019-01-28T16:25:24.228Z,19.83
2019-01-28T16:27:55.238Z,16.80
2019-01-28T16:30:26.547Z,18.23
2019-01-28T16:32:57.535Z,15.23
2019-01-28T16:35:27.721Z,15.67
2019-01-28T16:37:57.811Z,13.97
2019-01-28T16:40:27.678Z,14.33
2019-01-28T16:42:58.197Z,15.57
2019-01-28T16:45:28.564Z,19.33
2019-01-28T16:47:58.688Z,17.83
2019-01-28T16:50:29.564Z,17.33
2019-01-28T16:52:59.574Z,18.97
2019-01-28T16:55:29.288Z,17.60
2019-01-28T16:57:59.573Z,16.90
2019-01-28T17:00:32.952Z,16.17
2019-01-28T17:03:04.220Z,19.07
2019-01-28T17:05:34.965Z,17.47
2019-01-28T17:08:06.036Z,17.70
2019-01-28T17:10:36.541Z,19.07
2019-01-28T17:13:06.953Z,17.77
2019-01-28T17:15:37.073Z,18.73
2019-01-28T17:18:07.769Z,17.70
2019-01-28T17:20:39.372Z,17.83
2019-01-28T17:23:09.240Z,16.70
2019-01-28T17:25:40.529Z,18.83
2019-01-28T17:28:10.315Z,18.90
2019-01-28T17:30:40.860Z,23.30
2019-01-28T17:33:10.628Z,21.33
2019-01-28T17:35:41.021Z,18.73
2019-01-28T17:38:12.661Z,23.73
2019-01-28T17:40:43.502Z,19.70
2019-01-28T17:43:14.289Z,20.00
2019-01-28T17:45:44.594Z,21.23
2019-01-28T17:48:15.021Z,19.53
2019-01-28T17:50:44.761Z,25.57
2019-01-28T17:53:16.091Z,20.80
2019-01-28T17:55:46.825Z,23.47
2019-01-28T17:58:17.799Z,22.07
2019-01-28T18:00:59.416Z,25.13
2019-01-28T18:03:29.909Z,22.33
2019-01-28T18:06:00.240Z,21.43
2019-01-28T18:08:30.325Z,24.63
2019-01-28T18:11:00.350Z,21.30
2019-01-28T18:13:32.065Z,23.13
2019-01-28T18:16:03.167Z,22.47
2019-01-28T18:18:32.964Z,21.53
2019-01-28T18:21:04.201Z,25.83
2019-01-28T18:23:46.436Z,25.63
2019-01-28T18:26:17.369Z,21.70
2019-01-28T18:28:48.133Z,21.47
2019-01-28T18:31:18.617Z,20.57
2019-01-28T18:33:49.101Z,25.27
2019-01-28T18:36:19.965Z,23.27
2019-01-28T18:38:50.481Z,22.23
2019-01-28T18:41:20.862Z,22.77
2019-01-28T18:43:52.216Z,23.00
2019-01-28T18:46:22.397Z,23.10
2019-01-28T18:48:53.243Z,21.83
2019-01-28T18:51:24.412Z,24.77
2019-01-28T18:53:54.301Z,31.17
2019-01-28T18:56:24.584Z,31.57
2019-01-28T18:58:55.417Z,28.80
2019-01-28T19:01:30.561Z,28.03
2019-01-28T19:04:00.635Z,42.33
2019-01-28T19:06:52.145Z,41.53
2019-01-28T19:09:40.780Z,37.73
2019-01-28T19:12:22.521Z,47.93
2019-01-28T19:15:01.238Z,46.30
2019-01-28T19:17:57.813Z,35.03
2019-01-28T19:20:46.952Z,23.73
2019-01-28T19:23:17.966Z,30.93
2019-01-28T19:25:48.669Z,26.27
2019-01-28T19:28:22.266Z,25.63
2019-01-28T19:30:52.153Z,22.90
2019-01-28T19:33:23.101Z,23.07
2019-01-28T19:35:54.105Z,19.97
2019-01-28T19:38:23.952Z,25.00
2019-01-28T19:40:54.381Z,21.23
2019-01-28T19:43:24.355Z,27.07
2019-01-28T19:45:54.157Z,22.53
2019-01-28T19:48:24.521Z,21.83
2019-01-28T19:50:57.082Z,20.50
2019-01-28T19:53:27.664Z,25.23
2019-01-28T19:55:58.486Z,22.97
2019-01-28T19:58:28.820Z,24.80
2019-01-28T20:00:58.788Z,23.77
2019-01-28T20:03:30.748Z,22.90
2019-01-28T20:06:00.653Z,24.13
2019-01-28T20:08:34.033Z,23.20
2019-01-28T20:11:03.587Z,24.30
2019-01-28T20:13:34.072Z,31.50
2019-01-28T20:16:04.320Z,34.30
2019-01-28T20:18:34.730Z,30.77
2019-01-28T20:21:05.305Z,25.90
2019-01-28T20:23:36.719Z,25.23
2019-01-28T20:26:07.456Z,21.80
2019-01-28T20:28:37.390Z,24.33
2019-01-28T20:31:07.738Z,24.87
2019-01-28T20:33:37.344Z,22.00
2019-01-28T20:36:07.169Z,23.07
2019-01-28T20:38:37.516Z,21.73
2019-01-28T20:41:08.749Z,23.10
2019-01-28T20:43:41.080Z,21.30
2019-01-28T20:46:10.840Z,20.13
2019-01-28T20:48:41.419Z,22.27
2019-01-28T20:51:11.358Z,21.53
2019-01-28T20:53:41.601Z,23.20
2019-01-28T20:56:12.027Z,20.20
2019-01-28T20:58:42.624Z,20.83
2019-01-28T21:01:14.260Z,21.07
2019-01-28T21:03:44.165Z,18.77
2019-01-28T21:06:14.692Z,24.03
2019-01-28T21:08:44.273Z,22.37
2019-01-28T21:11:15.178Z,19.80
2019-01-28T21:13:45.603Z,19.90
2019-01-28T21:16:15.232Z,21.27
2019-01-28T21:18:45.197Z,20.60
2019-01-28T21:21:15.550Z,20.07
2019-01-28T21:23:45.417Z,22.83
2019-01-28T21:26:15.661Z,23.60
2019-01-28T21:28:46.065Z,22.13
2019-01-28T21:31:17.784Z,22.13
2019-01-28T21:33:48.186Z,23.90
2019-01-28T21:36:32.000Z,26.20
2019-01-28T21:39:01.892Z,19.37
2019-01-28T21:41:33.345Z,27.27
2019-01-28T21:44:03.295Z,24.70
2019-01-28T21:46:33.425Z,25.97
2019-01-28T21:49:04.346Z,22.03
2019-01-28T21:51:35.613Z,23.70
2019-01-28T21:54:06.839Z,22.73
2019-01-28T21:56:38.001Z,22.17
2019-01-28T21:59:08.293Z,20.97
2019-01-28T22:01:38.685Z,23.37
2019-01-28T22:04:09.182Z,24.50
2019-01-28T22:06:38.995Z,18.27
2019-01-28T22:09:09.721Z,22.87
2019-01-28T22:11:40.565Z,20.53
2019-01-28T22:14:11.477Z,24.03
2019-01-28T22:16:41.189Z,25.80
2019-01-28T22:19:11.988Z,21.40
2019-01-28T22:21:41.633Z,27.03
2019-01-28T22:24:12.604Z,26.27
2019-01-28T22:26:44.668Z,18.20
2019-01-28T22:29:15.844Z,39.53
2019-01-28T22:31:45.621Z,37.60
2019-01-28T22:34:15.984Z,21.53
2019-01-28T22:36:45.708Z,21.60
2019-01-28T22:39:15.733Z,18.07
2019-01-28T22:41:45.641Z,23.40
2019-01-28T22:44:16.736Z,20.30
2019-01-28T22:46:46.600Z,21.53
2019-01-28T22:49:16.440Z,17.10
2019-01-28T22:51:46.317Z,17.07
2019-01-28T22:54:16.374Z,28.33
2019-01-28T22:56:46.417Z,22.30
2019-01-28T22:59:19.057Z,17.73
2019-01-28T23:01:49.082Z,13.77
2019-01-28T23:04:18.997Z,18.33
2019-01-28T23:06:48.825Z,14.47
2019-01-28T23:09:18.633Z,15.70
2019-01-28T23:11:48.553Z,31.30
2019-01-28T23:14:19.092Z,16.27
2019-01-28T23:16:48.641Z,22.60
2019-01-28T23:19:18.516Z,19.27
2019-01-28T23:21:48.142Z,19.63
2019-01-28T23:24:18.082Z,12.83
2019-01-28T23:26:48.302Z,17.00
2019-01-28T23:29:18.492Z,14.17
2019-01-28T23:31:48.185Z,13.77
2019-01-28T23:34:17.821Z,16.07
2019-01-28T23:36:48.768Z,13.13
2019-01-28T23:39:19.300Z,11.17
2019-01-28T23:41:49.209Z,9.10
2019-01-28T23:44:20.116Z,12.83
2019-01-28T23:46:50.399Z,9.00
2019-01-28T23:49:20.949Z,9.87
2019-01-28T23:51:51.355Z,10.47
2019-01-28T23:54:21.171Z,9.30
2019-01-28T23:56:51.073Z,9.30
2019-01-28T23:59:22.116Z,9.10
